createdAt,value
2022-12-25T00:00:08.317Z,77.91
2022-12-25T00:01:08.327Z,77.61
2022-12-25T00:02:08.299Z,77.84
2022-12-25T00:03:08.303Z,78.25
2022-12-25T00:04:08.274Z,78.56
2022-12-25T00:05:08.264Z,78.67
2022-12-25T00:06:08.259Z,78.56
2022-12-25T00:07:08.243Z,78.77
2022-12-25T00:08:08.234Z,78.77
2022-12-25T00:09:08.243Z,78.56
2022-12-25T00:10:08.215Z,78.36
2022-12-25T00:11:08.207Z,78.67
2022-12-25T00:12:08.192Z,78.67
2022-12-25T00:13:08.180Z,78.56
2022-12-25T00:14:08.170Z,78.25
2022-12-25T00:15:08.178Z,78.87
2022-12-25T00:16:08.153Z,78.63
2022-12-25T00:17:08.145Z,78.53
2022-12-25T00:18:08.129Z,78.49
2022-12-25T00:19:08.120Z,78.19
2022-12-25T00:20:08.129Z,78.19
2022-12-25T00:21:08.125Z,78.19
2022-12-25T00:22:08.097Z,78.22
2022-12-25T00:23:08.101Z,78.94
2022-12-25T00:24:08.067Z,78.67
2022-12-25T00:25:08.082Z,79.18
2022-12-25T00:26:08.054Z,79.59
2022-12-25T00:27:08.037Z,79.59
2022-12-25T00:28:08.077Z,79.28
2022-12-25T00:29:08.012Z,79.35
2022-12-25T00:30:08.008Z,78.74
2022-12-25T00:31:07.991Z,78.63
2022-12-25T00:32:07.979Z,78.63
2022-12-25T00:33:07.973Z,78.22
2022-12-25T00:34:07.959Z,78.12
2022-12-25T00:35:07.955Z,77.81
2022-12-25T00:36:07.941Z,78.42
2022-12-25T00:37:07.928Z,77.98
2022-12-25T00:38:07.922Z,77.57
2022-12-25T00:39:07.909Z,77.67
2022-12-25T00:40:07.903Z,78.22
2022-12-25T00:41:07.894Z,77.91
2022-12-25T00:42:07.881Z,78.83
2022-12-25T00:43:07.870Z,78.32
2022-12-25T00:44:07.858Z,78.59
2022-12-25T00:45:07.845Z,78.19
2022-12-25T00:46:07.832Z,78.02
2022-12-25T00:47:07.827Z,78.74
2022-12-25T00:48:07.823Z,78.94
2022-12-25T00:49:07.800Z,78.94
2022-12-25T00:50:07.804Z,79.41
2022-12-25T00:51:07.782Z,78.9
2022-12-25T00:52:07.769Z,79
2022-12-25T00:53:07.758Z,79
2022-12-25T00:54:07.800Z,79.11
2022-12-25T00:55:07.738Z,79.11
2022-12-25T00:56:07.731Z,79.11
2022-12-25T00:57:07.720Z,79.31
2022-12-25T00:58:07.705Z,79.31
2022-12-25T00:59:07.701Z,79.52
2022-12-25T01:00:07.689Z,79.72
2022-12-25T01:01:07.694Z,79.72
2022-12-25T01:02:07.663Z,79.52
2022-12-25T01:03:07.651Z,79.62
2022-12-25T01:04:07.652Z,79.72
2022-12-25T01:05:07.634Z,79.72
2022-12-25T01:06:07.629Z,79.48
2022-12-25T01:07:07.629Z,78.59
2022-12-25T01:08:07.609Z,79.31
2022-12-25T01:09:07.592Z,79.17
2022-12-25T01:10:07.580Z,78.35
2022-12-25T01:11:07.568Z,78.45
2022-12-25T01:12:07.563Z,78.86
2022-12-25T01:13:07.556Z,78.25
2022-12-25T01:14:07.548Z,78.76
2022-12-25T01:15:07.527Z,78.8
2022-12-25T01:16:07.516Z,78.97
2022-12-25T01:17:07.509Z,78.97
2022-12-25T01:18:07.499Z,78.35
2022-12-25T01:19:07.488Z,78.28
2022-12-25T01:20:07.482Z,79.21
2022-12-25T01:21:07.463Z,79.11
2022-12-25T01:22:07.455Z,79
2022-12-25T01:23:07.451Z,79
2022-12-25T01:24:07.436Z,79.41
2022-12-25T01:25:07.420Z,79.41
2022-12-25T01:26:07.427Z,79.75
2022-12-25T01:27:07.400Z,79.96
2022-12-25T01:28:07.392Z,79.66
2022-12-25T01:29:07.384Z,80.07
2022-12-25T01:30:07.387Z,80.17
2022-12-25T01:31:07.406Z,80.03
2022-12-25T01:32:07.354Z,79.41
2022-12-25T01:33:07.346Z,80.37
2022-12-25T01:34:07.324Z,80.33
2022-12-25T01:35:07.319Z,79.03
2022-12-25T01:36:07.591Z,77.67
2022-12-25T01:37:07.338Z,76.61
2022-12-25T01:38:07.288Z,76.71
2022-12-25T01:39:07.274Z,76.09
2022-12-25T01:40:07.265Z,75.38
2022-12-25T01:41:07.260Z,75.38
2022-12-25T01:42:07.279Z,75.85
2022-12-25T01:43:07.238Z,75.45
2022-12-25T01:44:07.224Z,74.49
2022-12-25T01:45:07.214Z,74.32
2022-12-25T01:46:07.204Z,74.84
2022-12-25T01:47:07.244Z,74.9
2022-12-25T01:48:07.215Z,74.15
2022-12-25T01:49:07.173Z,73.27
2022-12-25T01:50:07.159Z,73.77
2022-12-25T01:51:07.158Z,74.43
2022-12-25T01:52:07.156Z,74.49
2022-12-25T01:53:07.132Z,74.18
2022-12-25T01:54:07.221Z,74.52
2022-12-25T01:55:07.107Z,74.73
2022-12-25T01:56:07.131Z,74.59
2022-12-25T01:57:07.087Z,74.29
2022-12-25T01:58:07.078Z,74.32
2022-12-25T01:59:07.064Z,74.93
2022-12-25T02:00:07.059Z,75.04
2022-12-25T02:01:07.057Z,75.59
2022-12-25T02:02:07.036Z,75.85
2022-12-25T02:03:07.024Z,74.9
2022-12-25T02:04:07.025Z,74.39
2022-12-25T02:05:06.999Z,75.04
2022-12-25T02:06:07.042Z,75.42
2022-12-25T02:07:06.980Z,77.23
2022-12-25T02:08:06.969Z,78.35
2022-12-25T02:09:06.978Z,78.05
2022-12-25T02:10:06.958Z,78.35
2022-12-25T02:11:06.939Z,78.9
2022-12-25T02:12:06.956Z,79.62
2022-12-25T02:13:06.915Z,79.48
2022-12-25T02:14:06.949Z,79.07
2022-12-25T02:15:06.894Z,79.21
2022-12-25T02:16:06.883Z,79.41
2022-12-25T02:17:06.873Z,79.41
2022-12-25T02:18:06.873Z,79.89
2022-12-25T02:19:06.852Z,78.38
2022-12-25T02:20:06.841Z,77.56
2022-12-25T02:21:06.839Z,76.81
2022-12-25T02:22:06.822Z,76.81
2022-12-25T02:23:06.817Z,76.43
2022-12-25T02:24:06.810Z,75.65
2022-12-25T02:25:06.790Z,76.23
2022-12-25T02:26:06.783Z,77.39
2022-12-25T02:27:06.780Z,78.05
2022-12-25T02:28:06.757Z,78.05
2022-12-25T02:29:06.747Z,78.8
2022-12-25T02:30:06.742Z,79.31
2022-12-25T02:31:06.728Z,79.62
2022-12-25T02:32:06.754Z,79.48
2022-12-25T02:33:06.709Z,79.17
2022-12-25T02:34:06.696Z,78.45
2022-12-25T02:35:06.688Z,78.59
2022-12-25T02:36:06.682Z,79.52
2022-12-25T02:37:06.663Z,79.52
2022-12-25T02:38:06.659Z,79.38
2022-12-25T02:39:06.644Z,78.56
2022-12-25T02:40:06.631Z,79.07
2022-12-25T02:41:06.626Z,78.35
2022-12-25T02:42:06.612Z,78.49
2022-12-25T02:43:06.601Z,78.86
2022-12-25T02:44:06.599Z,78.97
2022-12-25T02:45:06.577Z,78.66
2022-12-25T02:46:06.579Z,78.66
2022-12-25T02:47:06.556Z,78.56
2022-12-25T02:48:06.551Z,78.21
2022-12-25T02:49:06.542Z,78.31
2022-12-25T02:50:06.525Z,78.01
2022-12-25T02:51:06.522Z,78.25
2022-12-25T02:52:06.510Z,77.91
2022-12-25T02:53:06.500Z,77.7
2022-12-25T02:54:06.486Z,78.01
2022-12-25T02:55:06.480Z,77.64
2022-12-25T02:56:06.463Z,78.35
2022-12-25T02:57:06.451Z,79.11
2022-12-25T02:58:06.456Z,78.9
2022-12-25T02:59:06.434Z,79.75
2022-12-25T03:00:06.440Z,80.58
2022-12-25T03:01:06.416Z,80.78
2022-12-25T03:02:06.403Z,80.37
2022-12-25T03:03:06.392Z,80.44
2022-12-25T03:04:06.386Z,80.23
2022-12-25T03:05:06.383Z,79.99
2022-12-25T03:06:06.363Z,79.38
2022-12-25T03:07:06.346Z,78.97
2022-12-25T03:08:06.340Z,79.38
2022-12-25T03:09:06.333Z,78.86
2022-12-25T03:10:06.337Z,79.27
2022-12-25T03:11:06.414Z,78.76
2022-12-25T03:12:06.303Z,78.97
2022-12-25T03:13:06.285Z,78.86
2022-12-25T03:14:06.273Z,79.21
2022-12-25T03:15:06.262Z,79.93
2022-12-25T03:16:06.254Z,79.52
2022-12-25T03:17:06.251Z,80.03
2022-12-25T03:18:06.232Z,80.33
2022-12-25T03:19:06.225Z,80.13
2022-12-25T03:20:06.216Z,80.13
2022-12-25T03:21:06.202Z,80.54
2022-12-25T03:22:06.194Z,80.44
2022-12-25T03:23:06.180Z,80.13
2022-12-25T03:24:06.186Z,80.51
2022-12-25T03:25:06.160Z,80.09
2022-12-25T03:26:06.152Z,79.34
2022-12-25T03:27:06.138Z,78.93
2022-12-25T03:28:06.130Z,79.07
2022-12-25T03:29:06.120Z,79.79
2022-12-25T03:30:06.113Z,79.48
2022-12-25T03:31:06.099Z,79.54
2022-12-25T03:32:06.083Z,78.93
2022-12-25T03:33:06.083Z,79.44
2022-12-25T03:34:06.068Z,79.13
2022-12-25T03:35:06.050Z,79.13
2022-12-25T03:36:06.074Z,79.24
2022-12-25T03:37:06.033Z,79.75
2022-12-25T03:38:06.028Z,79.75
2022-12-25T03:39:06.009Z,79.64
2022-12-25T03:40:05.998Z,78.86
2022-12-25T03:41:05.992Z,77.94
2022-12-25T03:42:05.980Z,78.24
2022-12-25T03:43:05.967Z,78.11
2022-12-25T03:44:05.961Z,77.45
2022-12-25T03:45:05.953Z,76.5
2022-12-25T03:46:05.944Z,75.68
2022-12-25T03:47:05.927Z,75.92
2022-12-25T03:48:05.918Z,75.89
2022-12-25T03:49:05.913Z,76.12
2022-12-25T03:50:05.895Z,76.4
2022-12-25T03:51:05.885Z,75.68
2022-12-25T03:52:05.876Z,76.03
2022-12-25T03:53:05.862Z,77.45
2022-12-25T03:54:05.852Z,77.83
2022-12-25T03:55:05.844Z,78.65
2022-12-25T03:56:05.832Z,78.89
2022-12-25T03:57:05.820Z,80.57
2022-12-25T03:58:05.827Z,80.53
2022-12-25T03:59:05.806Z,79.41
2022-12-25T04:00:05.791Z,79.82
2022-12-25T04:01:05.780Z,79.82
2022-12-25T04:02:05.767Z,80.22
2022-12-25T04:03:05.758Z,80.22
2022-12-25T04:04:05.755Z,80.33
2022-12-25T04:05:05.740Z,80.43
2022-12-25T04:06:05.729Z,80.43
2022-12-25T04:07:05.718Z,80.33
2022-12-25T04:08:05.704Z,80.74
2022-12-25T04:09:05.697Z,80.02
2022-12-25T04:10:05.689Z,81.08
2022-12-25T04:11:05.678Z,80.49
2022-12-25T04:12:05.660Z,80.29
2022-12-25T04:13:05.649Z,79.13
2022-12-25T04:14:05.656Z,79.27
2022-12-25T04:15:05.633Z,79.02
2022-12-25T04:16:05.622Z,79.33
2022-12-25T04:17:05.621Z,78.99
2022-12-25T04:18:05.615Z,78
2022-12-25T04:19:05.588Z,78.72
2022-12-25T04:20:05.576Z,78.61
2022-12-25T04:21:05.566Z,78.41
2022-12-25T04:22:05.568Z,79.19
2022-12-25T04:23:05.552Z,78.03
2022-12-25T04:24:05.552Z,77.76
2022-12-25T04:25:05.525Z,78.72
2022-12-25T04:26:05.519Z,78.61
2022-12-25T04:27:05.524Z,78.61
2022-12-25T04:28:05.494Z,79.06
2022-12-25T04:29:05.496Z,79.43
2022-12-25T04:30:05.473Z,79.33
2022-12-25T04:31:05.463Z,79.09
2022-12-25T04:32:05.458Z,77.83
2022-12-25T04:33:05.440Z,77.56
2022-12-25T04:34:05.432Z,78.17
2022-12-25T04:35:05.417Z,78.34
2022-12-25T04:36:05.410Z,77.62
2022-12-25T04:37:05.406Z,77.76
2022-12-25T04:38:05.395Z,79.02
2022-12-25T04:39:05.374Z,79.19
2022-12-25T04:40:05.364Z,78.03
2022-12-25T04:41:05.356Z,78.17
2022-12-25T04:42:05.346Z,78.78
2022-12-25T04:43:05.336Z,78.38
2022-12-25T04:44:05.327Z,78.58
2022-12-25T04:45:05.317Z,78.95
2022-12-25T04:46:05.309Z,78.44
2022-12-25T04:47:05.295Z,78.23
2022-12-25T04:48:05.280Z,78.34
2022-12-25T04:49:05.280Z,77.62
2022-12-25T04:50:05.267Z,77.35
2022-12-25T04:51:05.252Z,78.27
2022-12-25T04:52:05.248Z,77.72
2022-12-25T04:53:05.228Z,78.13
2022-12-25T04:54:05.223Z,77.83
2022-12-25T04:55:05.223Z,77.52
2022-12-25T04:56:05.214Z,78.27
2022-12-25T04:57:05.196Z,78.23
2022-12-25T04:58:05.176Z,78.07
2022-12-25T04:59:05.165Z,78.17
2022-12-25T05:00:05.157Z,78.85
2022-12-25T05:01:05.145Z,78.5
2022-12-25T05:02:05.134Z,77.28
2022-12-25T05:03:05.136Z,76.84
2022-12-25T05:04:05.114Z,76.43
2022-12-25T05:05:05.107Z,75.98
2022-12-25T05:06:05.090Z,75.51
2022-12-25T05:07:05.089Z,75.92
2022-12-25T05:08:05.083Z,75.41
2022-12-25T05:09:05.065Z,75.78
2022-12-25T05:10:05.076Z,77.97
2022-12-25T05:11:05.040Z,77.72
2022-12-25T05:12:56.386Z,77.48
2022-12-25T05:13:57.201Z,77.22
2022-12-25T05:14:56.015Z,76.94
2022-12-25T05:15:56.094Z,78.03
2022-12-25T05:16:55.887Z,77.18
2022-12-25T05:17:55.943Z,77.18
2022-12-25T05:18:56.857Z,77.25
2022-12-25T05:19:55.855Z,77.31
2022-12-25T05:20:56.012Z,77.83
2022-12-25T05:21:55.832Z,77.66
2022-12-25T05:22:56.062Z,77.93
2022-12-25T05:23:57.087Z,78
2022-12-25T05:24:55.786Z,77.45
2022-12-25T05:25:55.924Z,76.97
2022-12-25T05:26:55.810Z,77.08
2022-12-25T05:27:55.758Z,77.31
2022-12-25T05:28:55.740Z,76.39
2022-12-25T05:29:55.794Z,75.82
2022-12-25T05:30:56.759Z,77.45
2022-12-25T05:31:55.713Z,76.7
2022-12-25T05:32:55.715Z,76.5
2022-12-25T05:33:55.704Z,75.78
2022-12-25T05:34:55.702Z,77.34
2022-12-25T05:35:55.706Z,77.18
2022-12-25T05:36:55.893Z,77.14
2022-12-25T05:37:55.676Z,77.45
2022-12-25T05:38:55.706Z,77.25
2022-12-25T05:39:55.678Z,76.73
2022-12-25T05:40:56.702Z,77.55
2022-12-25T05:41:55.605Z,77.04
2022-12-25T05:42:55.625Z,77.04
2022-12-25T05:43:55.616Z,76.22
2022-12-25T05:44:55.627Z,75.92
2022-12-25T05:45:55.567Z,77.34
2022-12-25T05:46:55.548Z,77.21
2022-12-25T05:47:55.579Z,76.19
2022-12-25T05:48:55.540Z,75.57
2022-12-25T05:49:55.538Z,76.32
2022-12-25T05:50:55.567Z,77
2022-12-25T05:51:56.519Z,75.61
2022-12-25T05:52:55.543Z,76.19
2022-12-25T05:53:55.492Z,76.63
2022-12-25T05:54:55.476Z,77.65
2022-12-25T05:55:55.457Z,77.89
2022-12-25T05:56:55.456Z,77.69
2022-12-25T05:57:55.438Z,78.41
2022-12-25T05:58:55.431Z,77.18
2022-12-25T05:59:55.455Z,77.25
2022-12-25T06:00:55.405Z,77.41
2022-12-25T06:01:55.403Z,77.65
2022-12-25T06:02:55.377Z,77.11
2022-12-25T06:03:55.379Z,77.28
2022-12-25T06:04:55.368Z,77.28
2022-12-25T06:05:55.355Z,77.38
2022-12-25T06:06:55.382Z,77.28
2022-12-25T06:07:55.326Z,77.96
2022-12-25T06:08:55.321Z,77.45
2022-12-25T06:09:55.324Z,76.84
2022-12-25T06:10:55.303Z,77.14
2022-12-25T06:11:55.301Z,77.04
2022-12-25T06:12:55.290Z,77.65
2022-12-25T06:13:55.266Z,76.9
2022-12-25T06:14:55.274Z,77.14
2022-12-25T06:15:55.243Z,77.75
2022-12-25T06:16:55.237Z,77.75
2022-12-25T06:17:55.240Z,77.11
2022-12-25T06:18:55.221Z,77.14
2022-12-25T06:19:55.201Z,77.04
2022-12-25T06:20:55.203Z,77.45
2022-12-25T06:21:55.176Z,78.2
2022-12-25T06:22:55.206Z,78.5
2022-12-25T06:23:55.156Z,78.71
2022-12-25T06:24:55.173Z,78.44
2022-12-25T06:25:55.139Z,79.46
2022-12-25T06:26:55.285Z,79.36
2022-12-25T06:27:55.137Z,79.73
2022-12-25T06:28:55.128Z,79.97
2022-12-25T06:29:55.098Z,79.46
2022-12-25T06:30:55.090Z,79.05
2022-12-25T06:31:55.088Z,80.01
2022-12-25T06:32:55.061Z,79.97
2022-12-25T06:33:55.052Z,79.87
2022-12-25T06:34:55.052Z,79.77
2022-12-25T06:35:55.070Z,79.46
2022-12-25T06:36:55.024Z,78.41
2022-12-25T06:37:55.026Z,79.02
2022-12-25T06:38:55.003Z,79.22
2022-12-25T06:39:55.012Z,78.61
2022-12-25T06:40:54.980Z,79.73
2022-12-25T06:41:54.978Z,79.28
2022-12-25T06:42:55.010Z,78.06
2022-12-25T06:43:54.984Z,78.06
2022-12-25T06:44:54.932Z,78.71
2022-12-25T06:45:54.930Z,78.3
2022-12-25T06:46:54.921Z,79.32
2022-12-25T06:47:54.934Z,78.06
2022-12-25T06:48:54.908Z,78.06
2022-12-25T06:49:54.900Z,78.54
2022-12-25T06:50:54.884Z,79.57
2022-12-25T06:51:54.861Z,79.02
2022-12-25T06:52:54.887Z,79.08
2022-12-25T06:53:54.854Z,77.82
2022-12-25T06:54:54.835Z,78.12
2022-12-25T06:55:54.820Z,77.14
2022-12-25T06:56:54.825Z,77.45
2022-12-25T06:57:54.823Z,78.37
2022-12-25T06:58:54.846Z,77.51
2022-12-25T06:59:54.809Z,77.96
2022-12-25T07:00:54.793Z,77.96
2022-12-25T07:01:54.796Z,78.12
2022-12-25T07:02:54.790Z,77.21
2022-12-25T07:03:54.737Z,77
2022-12-25T07:04:54.770Z,77.11
2022-12-25T07:05:54.720Z,77.31
2022-12-25T07:06:54.707Z,77.11
2022-12-25T07:07:54.720Z,77.51
2022-12-25T07:08:54.682Z,77.04
2022-12-25T07:09:54.674Z,78.16
2022-12-25T07:10:54.700Z,77.82
2022-12-25T07:11:54.665Z,77.75
2022-12-25T07:12:54.666Z,79.36
2022-12-25T07:13:54.630Z,79.93
2022-12-25T07:14:54.622Z,79.69
2022-12-25T07:15:54.615Z,79.59
2022-12-25T07:16:54.612Z,78.47
2022-12-25T07:17:54.605Z,79.28
2022-12-25T07:18:54.588Z,79.8
2022-12-25T07:19:54.579Z,78.47
2022-12-25T07:20:54.555Z,78.37
2022-12-25T07:21:54.565Z,78.5
2022-12-25T07:22:54.545Z,78.61
2022-12-25T07:23:54.553Z,78.91
2022-12-25T07:24:54.523Z,79.46
2022-12-25T07:25:54.505Z,79.66
2022-12-25T07:26:54.503Z,79.77
2022-12-25T07:27:54.520Z,79.49
2022-12-25T07:28:54.478Z,78.88
2022-12-25T07:29:54.466Z,78.91
2022-12-25T07:30:54.473Z,79.43
2022-12-25T07:31:54.463Z,79.08
2022-12-25T07:32:54.500Z,79.93
2022-12-25T07:33:54.423Z,79.83
2022-12-25T07:34:54.430Z,79.39
2022-12-25T07:35:54.425Z,79.69
2022-12-25T07:36:54.480Z,79.69
2022-12-25T07:37:54.433Z,78.33
2022-12-25T07:38:54.372Z,78.27
2022-12-25T07:39:54.367Z,79.25
2022-12-25T07:40:54.352Z,78.57
2022-12-25T07:41:54.336Z,78.77
2022-12-25T07:42:54.330Z,80.2
2022-12-25T07:43:54.427Z,78.98
2022-12-25T07:44:54.305Z,78.98
2022-12-25T07:45:54.305Z,78.74
2022-12-25T07:46:54.306Z,78.43
2022-12-25T07:47:54.272Z,78.02
2022-12-25T07:48:54.269Z,78.23
2022-12-25T07:49:54.251Z,78.23
2022-12-25T07:50:54.253Z,77.48
2022-12-25T07:51:54.237Z,78.5
2022-12-25T07:52:54.219Z,78.16
2022-12-25T07:53:54.223Z,78.09
2022-12-25T07:54:54.202Z,76.97
2022-12-25T07:55:54.212Z,77.64
2022-12-25T07:56:54.176Z,77.03
2022-12-25T07:57:54.217Z,76.73
2022-12-25T07:58:54.171Z,77.27
2022-12-25T07:59:54.164Z,78.37
2022-12-25T08:00:54.131Z,79.28
2022-12-25T08:01:54.161Z,79.8
2022-12-25T08:02:54.113Z,78.94
2022-12-25T08:03:54.377Z,79.25
2022-12-25T08:04:55.096Z,79.8
2022-12-25T08:05:54.099Z,79.59
2022-12-25T08:06:54.105Z,79.28
2022-12-25T08:07:54.063Z,79.8
2022-12-25T08:08:54.084Z,78.94
2022-12-25T08:09:54.063Z,79.55
2022-12-25T08:10:54.085Z,79.08
2022-12-25T08:11:54.064Z,78.12
2022-12-25T08:12:54.050Z,78.12
2022-12-25T08:13:54.011Z,78.23
2022-12-25T08:14:54.015Z,78.8
2022-12-25T08:15:53.985Z,77.78
2022-12-25T08:16:53.971Z,77.34
2022-12-25T08:17:53.979Z,77.75
2022-12-25T08:18:53.953Z,77.03
2022-12-25T08:19:53.975Z,77.03
2022-12-25T08:20:53.955Z,77
2022-12-25T08:21:53.919Z,77.14
2022-12-25T08:22:53.912Z,76.83
2022-12-25T08:23:53.894Z,77.34
2022-12-25T08:24:53.880Z,77
2022-12-25T08:25:53.895Z,77.14
2022-12-25T08:26:53.878Z,78.16
2022-12-25T08:27:53.896Z,77.75
2022-12-25T08:28:53.844Z,77.2
2022-12-25T08:29:53.959Z,76.9
2022-12-25T08:30:53.820Z,76.96
2022-12-25T08:31:53.811Z,77
2022-12-25T08:32:53.808Z,77.06
2022-12-25T08:33:53.862Z,77.06
2022-12-25T08:34:53.772Z,76.04
2022-12-25T08:35:53.769Z,75.64
2022-12-25T08:36:53.768Z,75.7
2022-12-25T08:37:53.748Z,75.16
2022-12-25T08:38:53.743Z,74.92
2022-12-25T08:39:53.763Z,74.45
2022-12-25T08:40:53.731Z,74.96
2022-12-25T08:41:53.706Z,74.41
2022-12-25T08:42:53.693Z,74.01
2022-12-25T08:43:53.685Z,73.6
2022-12-25T08:44:53.681Z,73.6
2022-12-25T08:45:53.666Z,73.97
2022-12-25T08:46:53.643Z,73.39
2022-12-25T08:47:53.637Z,73.16
2022-12-25T08:48:53.632Z,73.46
2022-12-25T08:49:53.625Z,73.46
2022-12-25T08:50:53.617Z,73.53
2022-12-25T08:51:53.604Z,73.02
2022-12-25T08:52:53.603Z,73.39
2022-12-25T08:53:53.573Z,73.5
2022-12-25T08:54:53.569Z,75.67
2022-12-25T08:55:53.559Z,73.74
2022-12-25T08:56:53.581Z,75.06
2022-12-25T08:57:53.554Z,75.43
2022-12-25T08:58:53.516Z,75.06
2022-12-25T08:59:53.533Z,75.16
2022-12-25T09:00:53.500Z,75.33
2022-12-25T09:01:53.525Z,75.12
2022-12-25T09:02:53.506Z,74.41
2022-12-25T09:03:53.494Z,74.62
2022-12-25T09:04:53.475Z,74.28
2022-12-25T09:05:53.447Z,74.31
2022-12-25T09:06:53.439Z,73.7
2022-12-25T09:07:53.477Z,74.28
2022-12-25T09:08:53.416Z,74.18
2022-12-25T09:09:53.406Z,73.46
2022-12-25T09:10:53.399Z,73.57
2022-12-25T09:11:53.436Z,73.77
2022-12-25T09:12:53.407Z,73.53
2022-12-25T09:13:53.367Z,73.22
2022-12-25T09:14:53.383Z,73.94
2022-12-25T09:15:53.411Z,73.53
2022-12-25T09:16:53.338Z,72.92
2022-12-25T09:17:53.335Z,73.43
2022-12-25T09:18:53.328Z,73.06
2022-12-25T09:19:53.315Z,73.46
2022-12-25T09:20:53.474Z,74.58
2022-12-25T09:21:53.286Z,73.67
2022-12-25T09:22:53.275Z,73.97
2022-12-25T09:23:53.267Z,73.63
2022-12-25T09:24:53.253Z,73.77
2022-12-25T09:25:53.252Z,73.87
2022-12-25T09:26:53.236Z,73.53
2022-12-25T09:27:53.226Z,74.07
2022-12-25T09:28:53.228Z,73.63
2022-12-25T09:29:53.211Z,73.02
2022-12-25T09:30:53.207Z,73.43
2022-12-25T09:31:53.197Z,73.7
2022-12-25T09:32:53.193Z,72.62
2022-12-25T09:33:53.167Z,73.67
2022-12-25T09:34:53.180Z,73.63
2022-12-25T09:35:53.172Z,73.13
2022-12-25T09:36:53.154Z,73.26
2022-12-25T09:37:53.139Z,74.18
2022-12-25T09:38:53.112Z,73.36
2022-12-25T09:39:53.187Z,73.57
2022-12-25T09:40:53.113Z,73.67
2022-12-25T09:41:53.093Z,73.06
2022-12-25T09:42:53.215Z,73.16
2022-12-25T09:43:53.055Z,73.97
2022-12-25T09:44:53.050Z,73.67
2022-12-25T09:45:53.058Z,73.87
2022-12-25T09:46:53.035Z,73.87
2022-12-25T09:47:53.020Z,75.33
2022-12-25T09:48:53.012Z,75.12
2022-12-25T09:49:53.108Z,75.53
2022-12-25T09:50:52.986Z,75.4
2022-12-25T09:51:52.977Z,74.58
2022-12-25T09:52:52.966Z,73.77
2022-12-25T09:53:52.977Z,74.38
2022-12-25T09:54:52.967Z,75.43
2022-12-25T09:55:52.938Z,74.92
2022-12-25T09:56:52.933Z,74.18
2022-12-25T09:57:52.929Z,75.46
2022-12-25T09:58:52.910Z,76.48
2022-12-25T09:59:52.898Z,77.03
2022-12-25T10:00:52.884Z,77.44
2022-12-25T10:01:52.865Z,77.23
2022-12-25T10:02:52.863Z,77.33
2022-12-25T10:03:52.868Z,77.33
2022-12-25T10:04:52.841Z,77.91
2022-12-25T10:05:52.823Z,77.06
2022-12-25T10:06:52.819Z,76.25
2022-12-25T10:07:52.825Z,76.95
2022-12-25T10:08:52.822Z,76.95
2022-12-25T10:09:52.791Z,76.25
2022-12-25T10:10:52.778Z,75.84
2022-12-25T10:11:52.789Z,76.55
2022-12-25T10:12:52.782Z,75.19
2022-12-25T10:13:52.787Z,74.99
2022-12-25T10:14:52.734Z,75.49
2022-12-25T10:15:52.735Z,75.4
2022-12-25T10:16:52.710Z,75.29
2022-12-25T10:17:52.761Z,75.09
2022-12-25T10:18:52.716Z,75.09
2022-12-25T10:19:52.691Z,75.46
2022-12-25T10:20:52.710Z,75.16
2022-12-25T10:21:52.662Z,74.68
2022-12-25T10:22:52.651Z,75.26
2022-12-25T10:23:52.650Z,74.44
2022-12-25T10:24:52.695Z,75.05
2022-12-25T10:25:53.617Z,75.05
2022-12-25T10:26:52.606Z,75.6
2022-12-25T10:27:52.596Z,75.26
2022-12-25T10:28:52.596Z,75.6
2022-12-25T10:29:52.594Z,76.01
2022-12-25T10:30:52.576Z,75.73
2022-12-25T10:31:52.559Z,76.45
2022-12-25T10:32:52.599Z,77.2
2022-12-25T10:33:52.722Z,77.4
2022-12-25T10:34:53.538Z,76.75
2022-12-25T10:35:52.546Z,77.12
2022-12-25T10:36:52.508Z,76.1
2022-12-25T10:37:52.514Z,76.61
2022-12-25T10:38:52.487Z,75.6
2022-12-25T10:39:52.474Z,75.76
2022-12-25T10:40:52.489Z,74.75
2022-12-25T10:41:52.487Z,74.51
2022-12-25T10:42:52.520Z,74.51
2022-12-25T10:43:52.452Z,74.41
2022-12-25T10:44:52.474Z,74.21
2022-12-25T10:45:52.416Z,74.41
2022-12-25T10:46:52.417Z,74.01
2022-12-25T10:47:52.404Z,74.31
2022-12-25T10:48:52.438Z,74.1
2022-12-25T10:49:52.381Z,74.51
2022-12-25T10:50:52.413Z,74.95
2022-12-25T10:51:52.382Z,74.41
2022-12-25T10:52:52.341Z,74.41
2022-12-25T10:53:52.339Z,74.07
2022-12-25T10:54:52.331Z,73.77
2022-12-25T10:55:52.310Z,73.26
2022-12-25T10:56:52.320Z,73.46
2022-12-25T10:57:52.285Z,73.53
2022-12-25T10:58:52.323Z,73.33
2022-12-25T10:59:52.296Z,72.31
2022-12-25T11:00:52.266Z,73.77
2022-12-25T11:01:52.283Z,72.21
2022-12-25T11:03:01.172Z,71.88
2022-12-25T11:03:52.358Z,72.61
2022-12-25T11:04:52.215Z,72.82
2022-12-25T11:05:52.286Z,72.82
2022-12-25T11:06:52.368Z,72.58
2022-12-25T11:07:52.191Z,72.08
2022-12-25T11:08:52.178Z,72.41
2022-12-25T11:09:52.185Z,73.02
2022-12-25T11:10:52.150Z,73.73
2022-12-25T11:11:52.161Z,73.33
2022-12-25T11:12:52.128Z,74.17
2022-12-25T11:13:52.160Z,73.46
2022-12-25T11:14:52.103Z,73.87
2022-12-25T11:15:52.141Z,73.87
2022-12-25T11:16:52.126Z,73.97
2022-12-25T11:17:52.115Z,73.77
2022-12-25T11:18:52.091Z,74.71
2022-12-25T11:19:52.091Z,75.02
2022-12-25T11:20:52.057Z,74.78
2022-12-25T11:21:52.062Z,75.52
2022-12-25T11:22:52.033Z,74.98
2022-12-25T11:23:52.029Z,74.82
2022-12-25T11:24:52.066Z,75.12
2022-12-25T11:25:52.003Z,75.67
2022-12-25T11:26:51.987Z,76.34
2022-12-25T11:27:52.013Z,76.95
2022-12-25T11:28:51.986Z,76.24
2022-12-25T11:29:52.009Z,76.82
2022-12-25T11:30:52.030Z,77.94
2022-12-25T11:31:51.996Z,77.83
2022-12-25T11:32:51.942Z,77.8
2022-12-25T11:33:52.111Z,77.49
2022-12-25T11:34:51.918Z,76.95
2022-12-25T11:35:51.939Z,76.75
2022-12-25T11:36:51.920Z,76.75
2022-12-25T11:37:51.891Z,76.75
2022-12-25T11:38:51.881Z,76.31
2022-12-25T11:39:51.886Z,76.24
2022-12-25T11:40:51.852Z,76.88
2022-12-25T11:41:51.854Z,77.02
2022-12-25T11:42:51.823Z,78
2022-12-25T11:43:51.911Z,77.19
2022-12-25T11:44:51.806Z,77.59
2022-12-25T11:45:51.789Z,78.3
2022-12-25T11:46:51.780Z,77.25
2022-12-25T11:47:51.769Z,76.98
2022-12-25T11:48:51.767Z,77.29
2022-12-25T11:49:51.793Z,77.94
2022-12-25T11:50:51.733Z,78.14
2022-12-25T11:51:51.752Z,79.09
2022-12-25T11:52:51.743Z,79.53
2022-12-25T11:53:51.725Z,80.69
2022-12-25T11:54:51.705Z,81.6
2022-12-25T11:55:51.732Z,80.96
2022-12-25T11:56:51.681Z,80.24
2022-12-25T11:57:51.684Z,80.55
2022-12-25T11:58:51.663Z,80.85
2022-12-25T11:59:51.638Z,80.04
2022-12-25T12:00:51.632Z,80.35
2022-12-25T12:01:51.690Z,79.53
2022-12-25T12:02:51.608Z,80.35
2022-12-25T12:03:51.631Z,79.74
2022-12-25T12:04:51.613Z,80.65
2022-12-25T12:05:51.613Z,80.45
2022-12-25T12:06:51.611Z,80.55
2022-12-25T12:07:51.557Z,80.15
2022-12-25T12:08:51.551Z,80.35
2022-12-25T12:09:51.542Z,80.21
2022-12-25T12:10:51.566Z,81.06
2022-12-25T12:11:51.532Z,80.96
2022-12-25T12:12:51.510Z,80.96
2022-12-25T12:13:51.496Z,81.06
2022-12-25T12:14:51.514Z,80.65
2022-12-25T12:15:51.474Z,81.26
2022-12-25T12:16:51.547Z,80.96
2022-12-25T12:17:51.524Z,81.26
2022-12-25T12:18:51.531Z,80.96
2022-12-25T12:19:51.450Z,81.54
2022-12-25T12:20:51.425Z,81.81
2022-12-25T12:21:51.452Z,82.32
2022-12-25T12:22:51.405Z,81.37
2022-12-25T12:23:51.391Z,81.12
2022-12-25T12:24:51.437Z,80.72
2022-12-25T12:25:51.368Z,80.82
2022-12-25T12:26:51.373Z,80.72
2022-12-25T12:27:52.360Z,80.72
2022-12-25T12:28:51.383Z,80.21
2022-12-25T12:29:51.356Z,80.62
2022-12-25T12:30:51.340Z,80.62
2022-12-25T12:31:51.312Z,80.31
2022-12-25T12:32:51.301Z,80.21
2022-12-25T12:33:51.332Z,80.62
2022-12-25T12:34:51.423Z,80.41
2022-12-25T12:35:51.271Z,80.72
2022-12-25T12:36:51.349Z,80.17
2022-12-25T12:37:51.251Z,80.17
2022-12-25T12:38:51.293Z,79.86
2022-12-25T12:39:51.255Z,79.86
2022-12-25T12:40:51.256Z,79.63
2022-12-25T12:41:51.226Z,79.16
2022-12-25T12:42:51.222Z,79.56
2022-12-25T12:43:51.178Z,79.36
2022-12-25T12:44:51.187Z,79.7
2022-12-25T12:45:51.174Z,80.82
2022-12-25T12:46:51.292Z,80.51
2022-12-25T12:47:51.138Z,81.12
2022-12-25T12:48:51.124Z,80.68
2022-12-25T12:49:51.122Z,80
2022-12-25T12:50:51.120Z,80.47
2022-12-25T12:51:51.183Z,79.46
2022-12-25T12:52:51.131Z,79.56
2022-12-25T12:53:51.179Z,79.97
2022-12-25T12:54:51.075Z,80.07
2022-12-25T12:55:51.055Z,79.97